sensor_id;sensor_type;location;lat;lon;timestamp;pressure;altitude;pressure_sealevel;temperature;humidity
28628;BME280;15815;46.760;19.604;2023-04-09T00:02:10;100920.97;;;5.93;98.62
28628;BME280;15815;46.760;19.604;2023-04-09T00:04:36;100913.88;;;5.95;98.62
28628;BME280;15815;46.760;19.604;2023-04-09T00:07:01;100899.63;;;5.84;98.59
28628;BME280;15815;46.760;19.604;2023-04-09T00:12:00;100920.88;;;5.89;98.62
28628;BME280;15815;46.760;19.604;2023-04-09T00:14:30;100906.88;;;5.73;98.75
28628;BME280;15815;46.760;19.604;2023-04-09T00:16:55;100898.50;;;5.73;98.46
28628;BME280;15815;46.760;19.604;2023-04-09T00:19:21;100886.44;;;5.53;100.00
28628;BME280;15815;46.760;19.604;2023-04-09T00:21:47;100890.50;;;5.56;100.00
28628;BME280;15815;46.760;19.604;2023-04-09T00:24:13;100932.75;;;5.86;99.78
28628;BME280;15815;46.760;19.604;2023-04-09T00:26:39;100886.19;;;5.58;99.53
28628;BME280;15815;46.760;19.604;2023-04-09T00:29:04;100901.13;;;5.66;99.34
28628;BME280;15815;46.760;19.604;2023-04-09T00:31:30;100908.41;;;5.71;99.31
28628;BME280;15815;46.760;19.604;2023-04-09T00:33:56;100943.31;;;5.93;98.86
28628;BME280;15815;46.760;19.604;2023-04-09T00:36:21;100898.59;;;5.61;99.34
28628;BME280;15815;46.760;19.604;2023-04-09T00:38:49;100899.41;;;5.62;99.14
28628;BME280;15815;46.760;19.604;2023-04-09T00:41:16;100914.88;;;5.59;99.97
28628;BME280;15815;46.760;19.604;2023-04-09T00:43:42;100920.00;;;5.73;99.73
28628;BME280;15815;46.760;19.604;2023-04-09T00:46:07;100917.59;;;5.71;99.51
28628;BME280;15815;46.760;19.604;2023-04-09T00:48:56;100943.81;;;5.82;99.20
28628;BME280;15815;46.760;19.604;2023-04-09T00:51:24;100919.13;;;5.69;99.31
28628;BME280;15815;46.760;19.604;2023-04-09T00:53:50;100933.16;;;5.72;99.23
28628;BME280;15815;46.760;19.604;2023-04-09T00:56:17;100930.81;;;5.74;98.88
28628;BME280;15815;46.760;19.604;2023-04-09T00:58:53;100912.53;;;5.61;98.66
28628;BME280;15815;46.760;19.604;2023-04-09T01:01:18;100926.56;;;5.65;99.00
28628;BME280;15815;46.760;19.604;2023-04-09T01:03:44;100923.88;;;5.68;99.25
28628;BME280;15815;46.760;19.604;2023-04-09T01:09:06;100926.03;;;5.59;99.98
28628;BME280;15815;46.760;19.604;2023-04-09T01:11:42;100933.28;;;5.76;99.45
28628;BME280;15815;46.760;19.604;2023-04-09T01:14:20;100935.34;;;5.79;99.46
28628;BME280;15815;46.760;19.604;2023-04-09T01:17:10;100901.66;;;5.56;99.52
28628;BME280;15815;46.760;19.604;2023-04-09T01:22:36;100903.97;;;5.54;99.56
28628;BME280;15815;46.760;19.604;2023-04-09T01:30:47;100921.16;;;5.56;100.00
28628;BME280;15815;46.760;19.604;2023-04-09T01:33:17;100903.63;;;5.27;100.00
28628;BME280;15815;46.760;19.604;2023-04-09T01:35:48;100895.91;;;5.37;100.00
28628;BME280;15815;46.760;19.604;2023-04-09T01:38:27;100922.34;;;5.55;100.00
28628;BME280;15815;46.760;19.604;2023-04-09T01:40:56;100899.84;;;5.48;100.00
28628;BME280;15815;46.760;19.604;2023-04-09T01:43:31;100906.31;;;5.52;99.86
28628;BME280;15815;46.760;19.604;2023-04-09T01:46:01;100926.56;;;5.65;99.48
28628;BME280;15815;46.760;19.604;2023-04-09T01:48:29;100930.19;;;5.65;99.79
28628;BME280;15815;46.760;19.604;2023-04-09T01:50:57;100933.78;;;5.66;99.45
28628;BME280;15815;46.760;19.604;2023-04-09T01:53:43;100924.94;;;5.64;99.53
28628;BME280;15815;46.760;19.604;2023-04-09T01:56:11;100901.91;;;5.51;99.58
28628;BME280;15815;46.760;19.604;2023-04-09T01:58:39;100925.94;;;5.55;100.00
28628;BME280;15815;46.760;19.604;2023-04-09T02:01:15;100921.44;;;5.51;100.00
28628;BME280;15815;46.760;19.604;2023-04-09T02:03:59;100923.50;;;5.54;100.00
28628;BME280;15815;46.760;19.604;2023-04-09T02:06:33;100898.66;;;5.49;100.00
28628;BME280;15815;46.760;19.604;2023-04-09T02:09:06;100920.91;;;5.61;100.00
28628;BME280;15815;46.760;19.604;2023-04-09T02:11:36;100904.28;;;5.37;100.00
28628;BME280;15815;46.760;19.604;2023-04-09T02:14:06;100927.81;;;5.51;100.00
28628;BME280;15815;46.760;19.604;2023-04-09T02:16:34;100894.66;;;5.34;100.00
28628;BME280;15815;46.760;19.604;2023-04-09T02:19:00;100929.97;;;5.58;100.00
28628;BME280;15815;46.760;19.604;2023-04-09T02:21:27;100919.09;;;5.53;100.00
28628;BME280;15815;46.760;19.604;2023-04-09T02:23:53;100923.63;;;5.45;100.00
28628;BME280;15815;46.760;19.604;2023-04-09T02:26:24;100935.91;;;5.56;100.00
28628;BME280;15815;46.760;19.604;2023-04-09T02:28:50;100916.66;;;5.51;100.00
28628;BME280;15815;46.760;19.604;2023-04-09T02:31:16;100904.38;;;5.40;100.00
28628;BME280;15815;46.760;19.604;2023-04-09T02:33:41;100894.84;;;5.41;100.00
28628;BME280;15815;46.760;19.604;2023-04-09T02:36:13;100919.53;;;5.55;100.00
28628;BME280;15815;46.760;19.604;2023-04-09T02:38:44;100943.63;;;5.75;100.00
28628;BME280;15815;46.760;19.604;2023-04-09T02:41:09;100899.34;;;5.46;100.00
28628;BME280;15815;46.760;19.604;2023-04-09T02:43:35;100920.09;;;5.61;100.00
28628;BME280;15815;46.760;19.604;2023-04-09T02:46:02;100891.94;;;5.50;100.00
28628;BME280;15815;46.760;19.604;2023-04-09T02:48:27;100915.22;;;5.57;100.00
28628;BME280;15815;46.760;19.604;2023-04-09T02:50:55;100918.03;;;5.57;100.00
28628;BME280;15815;46.760;19.604;2023-04-09T02:53:21;100902.00;;;5.54;100.00
28628;BME280;15815;46.760;19.604;2023-04-09T02:55:47;100922.53;;;5.62;100.00
28628;BME280;15815;46.760;19.604;2023-04-09T02:58:12;100887.56;;;5.37;100.00
28628;BME280;15815;46.760;19.604;2023-04-09T03:00:38;100921.97;;;5.56;100.00
28628;BME280;15815;46.760;19.604;2023-04-09T03:03:06;100889.94;;;5.50;100.00
28628;BME280;15815;46.760;19.604;2023-04-09T03:05:31;100894.72;;;5.50;100.00
28628;BME280;15815;46.760;19.604;2023-04-09T03:07:57;100891.34;;;5.44;100.00
28628;BME280;15815;46.760;19.604;2023-04-09T03:10:22;100918.47;;;5.59;100.00
28628;BME280;15815;46.760;19.604;2023-04-09T03:12:49;100921.00;;;5.65;99.97
28628;BME280;15815;46.760;19.604;2023-04-09T03:15:18;100891.25;;;5.41;100.00
28628;BME280;15815;46.760;19.604;2023-04-09T03:17:43;100913.59;;;5.56;100.00
28628;BME280;15815;46.760;19.604;2023-04-09T03:20:09;100919.28;;;5.60;99.97
28628;BME280;15815;46.760;19.604;2023-04-09T03:22:36;100888.63;;;5.32;100.00
28628;BME280;15815;46.760;19.604;2023-04-09T03:25:02;100927.91;;;5.55;100.00
28628;BME280;15815;46.760;19.604;2023-04-09T03:27:27;100929.00;;;5.66;100.00
28628;BME280;15815;46.760;19.604;2023-04-09T03:29:56;100879.38;;;5.44;100.00
28628;BME280;15815;46.760;19.604;2023-04-09T03:32:24;100911.19;;;5.55;100.00
28628;BME280;15815;46.760;19.604;2023-04-09T03:34:54;100921.88;;;5.53;100.00
28628;BME280;15815;46.760;19.604;2023-04-09T03:37:23;100936.47;;;5.62;100.00
28628;BME280;15815;46.760;19.604;2023-04-09T03:39:52;100900.34;;;5.38;100.00
28628;BME280;15815;46.760;19.604;2023-04-09T03:42:20;100893.59;;;5.39;99.93
28628;BME280;15815;46.760;19.604;2023-04-09T03:45:06;100916.66;;;5.51;100.00
28628;BME280;15815;46.760;19.604;2023-04-09T03:47:32;100911.91;;;5.52;100.00
28628;BME280;15815;46.760;19.604;2023-04-09T03:50:15;100891.69;;;5.43;99.75
28628;BME280;15815;46.760;19.604;2023-04-09T03:52:40;100923.28;;;5.47;100.00
28628;BME280;15815;46.760;19.604;2023-04-09T03:55:09;100900.44;;;5.41;100.00
28628;BME280;15815;46.760;19.604;2023-04-09T03:57:35;100920.81;;;5.57;100.00
28628;BME280;15815;46.760;19.604;2023-04-09T04:00:01;100902.13;;;5.46;100.00
28628;BME280;15815;46.760;19.604;2023-04-09T04:02:27;100906.22;;;5.48;100.00
28628;BME280;15815;46.760;19.604;2023-04-09T04:04:53;100902.50;;;5.44;100.00
28628;BME280;15815;46.760;19.604;2023-04-09T04:07:18;100917.84;;;5.50;100.00
28628;BME280;15815;46.760;19.604;2023-04-09T04:09:44;100912.59;;;5.49;100.00
28628;BME280;15815;46.760;19.604;2023-04-09T04:14:35;100904.47;;;5.44;100.00
28628;BME280;15815;46.760;19.604;2023-04-09T04:17:02;100929.00;;;5.66;100.00
28628;BME280;15815;46.760;19.604;2023-04-09T04:19:27;100925.75;;;5.64;100.00
28628;BME280;15815;46.760;19.604;2023-04-09T04:21:53;100927.91;;;5.55;100.00
28628;BME280;15815;46.760;19.604;2023-04-09T04:24:19;100937.53;;;5.57;100.00
28628;BME280;15815;46.760;19.604;2023-04-09T04:26:50;100903.56;;;5.40;100.00
28628;BME280;15815;46.760;19.604;2023-04-09T04:29:18;100927.09;;;5.54;100.00
28628;BME280;15815;46.760;19.604;2023-04-09T04:31:46;100920.72;;;5.54;99.90
28628;BME280;15815;46.760;19.604;2023-04-09T04:34:11;100928.09;;;5.62;100.00
28628;BME280;15815;46.760;19.604;2023-04-09T04:36:39;100927.28;;;5.62;100.00
28628;BME280;15815;46.760;19.604;2023-04-09T04:41:33;100917.25;;;5.45;100.00
28628;BME280;15815;46.760;19.604;2023-04-09T04:43:59;100935.00;;;5.52;100.00
28628;BME280;15815;46.760;19.604;2023-04-09T04:46:27;100910.66;;;5.37;100.00
28628;BME280;15815;46.760;19.604;2023-04-09T04:48:53;100911.69;;;5.45;100.00
28628;BME280;15815;46.760;19.604;2023-04-09T04:51:18;100923.25;;;5.59;100.00
28628;BME280;15815;46.760;19.604;2023-04-09T04:53:44;100911.09;;;5.51;100.00
28628;BME280;15815;46.760;19.604;2023-04-09T04:56:26;100933.78;;;5.66;100.00
28628;BME280;15815;46.760;19.604;2023-04-09T04:58:51;100924.84;;;5.60;100.00
28628;BME280;15815;46.760;19.604;2023-04-09T05:01:17;100936.00;;;5.60;100.00
28628;BME280;15815;46.760;19.604;2023-04-09T05:03:44;100932.25;;;5.68;100.00
28628;BME280;15815;46.760;19.604;2023-04-09T05:06:09;100925.94;;;5.71;100.00
28628;BME280;15815;46.760;19.604;2023-04-09T05:08:35;100931.53;;;5.71;100.00
28628;BME280;15815;46.760;19.604;2023-04-09T05:11:00;100943.63;;;5.75;100.00
28628;BME280;15815;46.760;19.604;2023-04-09T05:16:01;100921.00;;;5.65;99.76
28628;BME280;15815;46.760;19.604;2023-04-09T05:18:37;100930.25;;;5.69;99.78
28628;BME280;15815;46.760;19.604;2023-04-09T05:21:08;100918.75;;;5.70;99.99
28628;BME280;15815;46.760;19.604;2023-04-09T05:23:34;100977.16;;;5.91;100.00
28628;BME280;15815;46.760;19.604;2023-04-09T05:25:59;100943.63;;;5.75;100.00
28628;BME280;15815;46.760;19.604;2023-04-09T05:28:30;100945.44;;;5.83;99.55
28628;BME280;15815;46.760;19.604;2023-04-09T05:30:56;100958.22;;;5.84;99.30
28628;BME280;15815;46.760;19.604;2023-04-09T05:33:23;100967.16;;;5.90;99.21
28628;BME280;15815;46.760;19.604;2023-04-09T05:35:49;100948.03;;;5.76;99.07
28628;BME280;15815;46.760;19.604;2023-04-09T05:38:15;100943.00;;;5.82;98.82
28628;BME280;15815;46.760;19.604;2023-04-09T05:40:43;100988.34;;;6.23;98.74
28628;BME280;15815;46.760;19.604;2023-04-09T05:43:09;100968.72;;;6.19;98.64
28628;BME280;15815;46.760;19.604;2023-04-09T05:45:36;100976.00;;;6.24;98.71
28628;BME280;15815;46.760;19.604;2023-04-09T05:48:02;100947.66;;;6.22;97.73
28628;BME280;15815;46.760;19.604;2023-04-09T05:50:27;100955.22;;;6.37;98.04
28628;BME280;15815;46.760;19.604;2023-04-09T05:52:53;100970.53;;;6.59;98.01
28628;BME280;15815;46.760;19.604;2023-04-09T05:55:18;100965.66;;;6.56;99.09
28628;BME280;15815;46.760;19.604;2023-04-09T05:57:44;100965.03;;;6.62;98.76
28628;BME280;15815;46.760;19.604;2023-04-09T06:00:10;100981.78;;;6.62;96.88
28628;BME280;15815;46.760;19.604;2023-04-09T06:02:36;100967.75;;;6.59;96.58
28628;BME280;15815;46.760;19.604;2023-04-09T06:05:02;100976.19;;;6.78;97.17
28628;BME280;15815;46.760;19.604;2023-04-09T06:07:27;100978.66;;;6.99;96.78
28628;BME280;15815;46.760;19.604;2023-04-09T06:09:54;100967.06;;;6.81;95.24
28628;BME280;15815;46.760;19.604;2023-04-09T06:12:19;100980.13;;;6.93;94.98
28628;BME280;15815;46.760;19.604;2023-04-09T06:14:49;100984.09;;;6.92;96.03
28628;BME280;15815;46.760;19.604;2023-04-09T06:17:14;100987.06;;;6.99;96.35
28628;BME280;15815;46.760;19.604;2023-04-09T06:19:42;100972.34;;;7.02;95.46
28628;BME280;15815;46.760;19.604;2023-04-09T06:22:13;100987.91;;;7.19;95.10
28628;BME280;15815;46.760;19.604;2023-04-09T06:24:39;101014.63;;;7.35;95.09
28628;BME280;15815;46.760;19.604;2023-04-09T06:27:05;101002.84;;;7.26;94.25
28628;BME280;15815;46.760;19.604;2023-04-09T06:29:31;100981.44;;;7.15;94.10
28628;BME280;15815;46.760;19.604;2023-04-09T06:32:04;100988.00;;;7.22;93.82
28628;BME280;15815;46.760;19.604;2023-04-09T06:34:33;100993.22;;;7.24;92.64
28628;BME280;15815;46.760;19.604;2023-04-09T06:36:58;100974.94;;;7.10;93.07
28628;BME280;15815;46.760;19.604;2023-04-09T06:39:24;101010.03;;;7.43;92.65
28628;BME280;15815;46.760;19.604;2023-04-09T06:41:49;100982.03;;;7.24;90.99
28628;BME280;15815;46.760;19.604;2023-04-09T06:44:15;100979.66;;;7.26;91.55
28628;BME280;15815;46.760;19.604;2023-04-09T06:46:41;100974.44;;;7.24;91.18
28628;BME280;15815;46.760;19.604;2023-04-09T06:49:06;100998.22;;;7.34;90.78
28628;BME280;15815;46.760;19.604;2023-04-09T06:51:32;100995.59;;;7.41;91.58
28628;BME280;15815;46.760;19.604;2023-04-09T06:53:58;100990.50;;;7.27;90.97
28628;BME280;15815;46.760;19.604;2023-04-09T06:56:29;101026.00;;;7.42;90.07
28628;BME280;15815;46.760;19.604;2023-04-09T06:58:54;100983.66;;;7.25;90.67
28628;BME280;15815;46.760;19.604;2023-04-09T07:01:22;101007.66;;;7.45;90.33
28628;BME280;15815;46.760;19.604;2023-04-09T07:03:54;101011.44;;;7.53;90.48
28628;BME280;15815;46.760;19.604;2023-04-09T07:06:26;101008.69;;;7.56;90.12
28628;BME280;15815;46.760;19.604;2023-04-09T07:08:55;101008.25;;;7.54;90.23
28628;BME280;15815;46.760;19.604;2023-04-09T07:11:21;100988.09;;;7.45;89.96
28628;BME280;15815;46.760;19.604;2023-04-09T07:13:54;101009.38;;;7.50;89.48
28628;BME280;15815;46.760;19.604;2023-04-09T07:16:19;101020.66;;;7.72;89.25
28628;BME280;15815;46.760;19.604;2023-04-09T07:18:45;100998.56;;;7.67;89.39
28628;BME280;15815;46.760;19.604;2023-04-09T07:21:13;101013.13;;;7.77;88.86
28628;BME280;15815;46.760;19.604;2023-04-09T07:23:39;101008.41;;;7.81;88.24
28628;BME280;15815;46.760;19.604;2023-04-09T07:26:05;101017.09;;;7.95;87.58
28628;BME280;15815;46.760;19.604;2023-04-09T07:28:31;101044.47;;;8.24;88.05
28628;BME280;15815;46.760;19.604;2023-04-09T07:30:58;101032.97;;;8.29;87.11
28628;BME280;15815;46.760;19.604;2023-04-09T07:33:24;101042.59;;;8.51;87.04
28628;BME280;15815;46.760;19.604;2023-04-09T07:35:50;101005.09;;;8.36;85.28
28628;BME280;15815;46.760;19.604;2023-04-09T07:38:15;101034.38;;;8.85;86.12
28628;BME280;15815;46.760;19.604;2023-04-09T07:40:41;101038.47;;;8.91;85.50
28628;BME280;15815;46.760;19.604;2023-04-09T07:43:06;101028.28;;;8.79;84.82
28628;BME280;15815;46.760;19.604;2023-04-09T07:45:32;101026.75;;;8.85;85.63
28628;BME280;15815;46.760;19.604;2023-04-09T07:48:00;101033.72;;;8.95;84.10
28628;BME280;15815;46.760;19.604;2023-04-09T07:50:25;101042.63;;;9.01;82.39
28628;BME280;15815;46.760;19.604;2023-04-09T07:52:56;101038.63;;;9.02;82.96
28628;BME280;15815;46.760;19.604;2023-04-09T07:55:21;101049.03;;;9.01;81.96
28628;BME280;15815;46.760;19.604;2023-04-09T07:57:47;101034.59;;;8.99;82.02
28628;BME280;15815;46.760;19.604;2023-04-09T08:00:20;101067.34;;;9.44;83.56
28628;BME280;15815;46.760;19.604;2023-04-09T08:02:55;101050.84;;;9.39;81.64
28628;BME280;15815;46.760;19.604;2023-04-09T08:05:21;101048.88;;;9.43;80.67
28628;BME280;15815;46.760;19.604;2023-04-09T08:07:49;101054.81;;;9.65;79.97
28628;BME280;15815;46.760;19.604;2023-04-09T08:10:15;101056.75;;;9.60;78.50
28628;BME280;15815;46.760;19.604;2023-04-09T08:12:41;101066.88;;;9.69;77.62
28628;BME280;15815;46.760;19.604;2023-04-09T08:15:09;101059.81;;;9.82;78.37
28628;BME280;15815;46.760;19.604;2023-04-09T08:17:35;101042.25;;;9.58;77.35
28628;BME280;15815;46.760;19.604;2023-04-09T08:20:01;101049.34;;;9.79;78.62
28628;BME280;15815;46.760;19.604;2023-04-09T08:22:26;101069.13;;;10.19;78.29
28628;BME280;15815;46.760;19.604;2023-04-09T08:24:52;101063.00;;;10.44;79.24
28628;BME280;15815;46.760;19.604;2023-04-09T08:27:20;101053.22;;;10.31;77.40
28628;BME280;15815;46.760;19.604;2023-04-09T08:29:51;101087.44;;;10.40;76.68
28628;BME280;15815;46.760;19.604;2023-04-09T08:32:16;101068.75;;;10.58;77.52
28628;BME280;15815;46.760;19.604;2023-04-09T08:34:42;101089.78;;;10.71;77.81
28628;BME280;15815;46.760;19.604;2023-04-09T08:37:10;101051.66;;;10.74;77.42
28628;BME280;15815;46.760;19.604;2023-04-09T08:39:36;101076.13;;;11.21;76.91
28628;BME280;15815;46.760;19.604;2023-04-09T08:42:04;101074.84;;;11.08;73.97
28628;BME280;15815;46.760;19.604;2023-04-09T08:44:32;101063.63;;;11.15;74.13
28628;BME280;15815;46.760;19.604;2023-04-09T08:46:58;101051.97;;;11.13;73.88
28628;BME280;15815;46.760;19.604;2023-04-09T08:49:24;101063.25;;;11.17;72.40
28628;BME280;15815;46.760;19.604;2023-04-09T08:51:50;101076.44;;;11.09;72.93
28628;BME280;15815;46.760;19.604;2023-04-09T08:54:16;101068.00;;;11.09;73.38
28628;BME280;15815;46.760;19.604;2023-04-09T08:56:45;101058.13;;;10.81;73.21
28628;BME280;15815;46.760;19.604;2023-04-09T08:59:14;101064.22;;;10.87;71.31
28628;BME280;15815;46.760;19.604;2023-04-09T09:01:40;101073.03;;;10.86;71.87
28628;BME280;15815;46.760;19.604;2023-04-09T09:04:07;101084.72;;;10.91;72.00
28628;BME280;15815;46.760;19.604;2023-04-09T09:06:40;101071.97;;;11.01;72.80
28628;BME280;15815;46.760;19.604;2023-04-09T09:09:15;101090.16;;;11.14;72.25
28628;BME280;15815;46.760;19.604;2023-04-09T09:11:43;101076.50;;;11.16;73.23
28628;BME280;15815;46.760;19.604;2023-04-09T09:14:13;101086.09;;;11.08;73.97
28628;BME280;15815;46.760;19.604;2023-04-09T09:16:42;101092.75;;;11.37;73.43
28628;BME280;15815;46.760;19.604;2023-04-09T09:21:56;101079.59;;;11.52;70.03
28628;BME280;15815;46.760;19.604;2023-04-09T09:24:24;101080.81;;;11.58;68.67
28628;BME280;15815;46.760;19.604;2023-04-09T09:26:54;101081.03;;;11.93;69.87
28628;BME280;15815;46.760;19.604;2023-04-09T09:29:24;101095.22;;;12.15;68.68
28628;BME280;15815;46.760;19.604;2023-04-09T09:31:52;101075.50;;;12.11;68.11
28628;BME280;15815;46.760;19.604;2023-04-09T09:34:19;101062.56;;;11.99;68.81
28628;BME280;15815;46.760;19.604;2023-04-09T09:36:46;101060.63;;;12.18;68.16
28628;BME280;15815;46.760;19.604;2023-04-09T09:39:13;101057.69;;;11.86;67.99
28628;BME280;15815;46.760;19.604;2023-04-09T09:41:42;101047.66;;;12.02;69.86
28628;BME280;15815;46.760;19.604;2023-04-09T09:44:38;101090.09;;;12.56;68.15
28628;BME280;15815;46.760;19.604;2023-04-09T09:47:07;101061.81;;;12.13;66.79
28628;BME280;15815;46.760;19.604;2023-04-09T09:49:36;101064.22;;;12.07;66.58
28628;BME280;15815;46.760;19.604;2023-04-09T09:52:06;101090.84;;;12.28;64.89
28628;BME280;15815;46.760;19.604;2023-04-09T09:54:41;101077.84;;;12.02;64.82
28628;BME280;15815;46.760;19.604;2023-04-09T09:57:08;101077.38;;;11.79;66.35
28628;BME280;15815;46.760;19.604;2023-04-09T09:59:40;101069.63;;;11.72;65.34
28628;BME280;15815;46.760;19.604;2023-04-09T10:02:27;101069.75;;;11.86;65.17
28628;BME280;15815;46.760;19.604;2023-04-09T10:04:54;101075.41;;;11.97;64.95
28628;BME280;15815;46.760;19.604;2023-04-09T10:07:21;101052.84;;;11.86;65.32
28628;BME280;15815;46.760;19.604;2023-04-09T10:09:52;101074.63;;;12.00;66.41
28628;BME280;15815;46.760;19.604;2023-04-09T10:12:21;101081.06;;;12.04;67.16
28628;BME280;15815;46.760;19.604;2023-04-09T10:14:47;101084.28;;;12.02;66.55
28628;BME280;15815;46.760;19.604;2023-04-09T10:17:12;101086.22;;;11.81;65.95
28628;BME280;15815;46.760;19.604;2023-04-09T10:19:43;101077.28;;;11.71;65.62
28628;BME280;15815;46.760;19.604;2023-04-09T10:22:12;101067.47;;;11.48;67.79
28628;BME280;15815;46.760;19.604;2023-04-09T10:24:40;101070.91;;;11.78;66.97
28628;BME280;15815;46.760;19.604;2023-04-09T10:27:14;101074.19;;;11.87;66.02
28628;BME280;15815;46.760;19.604;2023-04-09T10:29:48;101066.38;;;11.66;65.08
28628;BME280;15815;46.760;19.604;2023-04-09T10:32:21;101058.34;;;11.65;65.27
28628;BME280;15815;46.760;19.604;2023-04-09T10:34:51;101072.13;;;11.81;65.16
28628;BME280;15815;46.760;19.604;2023-04-09T10:37:21;101077.44;;;12.00;66.93
28628;BME280;15815;46.760;19.604;2023-04-09T10:39:49;101077.91;;;12.16;68.39
28628;BME280;15815;46.760;19.604;2023-04-09T10:42:18;101056.97;;;12.14;69.68
28628;BME280;15815;46.760;19.604;2023-04-09T10:44:44;101076.38;;;12.33;71.42
28628;BME280;15815;46.760;19.604;2023-04-09T10:47:09;101054.59;;;12.26;71.24
28628;BME280;15815;46.760;19.604;2023-04-09T10:49:39;101069.13;;;12.39;72.63
28628;BME280;15815;46.760;19.604;2023-04-09T10:52:10;101051.41;;;12.38;71.17
28628;BME280;15815;46.760;19.604;2023-04-09T10:54:37;101048.16;;;12.29;71.77
28628;BME280;15815;46.760;19.604;2023-04-09T10:59:36;101054.19;;;12.24;72.48
28628;BME280;15815;46.760;19.604;2023-04-09T11:02:05;101056.25;;;12.45;73.46
28628;BME280;15815;46.760;19.604;2023-04-09T11:04:49;101060.28;;;12.55;70.98
28628;BME280;15815;46.760;19.604;2023-04-09T11:07:22;101068.78;;;12.73;71.99
28628;BME280;15815;46.760;19.604;2023-04-09T11:09:49;101060.34;;;12.65;73.53
28628;BME280;15815;46.760;19.604;2023-04-09T11:12:14;101054.25;;;12.46;69.05
28628;BME280;15815;46.760;19.604;2023-04-09T11:14:40;101061.84;;;12.31;69.12
28628;BME280;15815;46.760;19.604;2023-04-09T11:17:05;101053.84;;;12.47;70.83
28628;BME280;15815;46.760;19.604;2023-04-09T11:19:34;101049.81;;;12.41;67.41
28628;BME280;15815;46.760;19.604;2023-04-09T11:22:03;101050.25;;;12.75;69.44
28628;BME280;15815;46.760;19.604;2023-04-09T11:24:44;101053.88;;;13.08;67.89
28628;BME280;15815;46.760;19.604;2023-04-09T11:27:10;101058.34;;;13.23;68.25
28628;BME280;15815;46.760;19.604;2023-04-09T11:29:35;101061.50;;;13.60;66.98
28628;BME280;15815;46.760;19.604;2023-04-09T11:32:02;101061.91;;;13.63;64.22
28628;BME280;15815;46.760;19.604;2023-04-09T11:34:31;101053.09;;;13.43;64.32
28628;BME280;15815;46.760;19.604;2023-04-09T11:36:56;101038.94;;;13.57;65.89
28628;BME280;15815;46.760;19.604;2023-04-09T11:39:22;101054.56;;;13.86;66.76
28628;BME280;15815;46.760;19.604;2023-04-09T11:41:48;101041.34;;;13.58;64.70
28628;BME280;15815;46.760;19.604;2023-04-09T11:44:13;101050.69;;;13.30;63.85
28628;BME280;15815;46.760;19.604;2023-04-09T11:46:40;101058.69;;;13.57;64.53
28628;BME280;15815;46.760;19.604;2023-04-09T11:49:06;101057.84;;;13.67;64.64
28628;BME280;15815;46.760;19.604;2023-04-09T11:51:32;101049.38;;;13.67;62.40
28628;BME280;15815;46.760;19.604;2023-04-09T11:54:02;101030.91;;;13.30;64.33
28628;BME280;15815;46.760;19.604;2023-04-09T11:56:31;101029.69;;;13.35;63.92
28628;BME280;15815;46.760;19.604;2023-04-09T11:58:57;101067.94;;;13.68;64.32
28628;BME280;15815;46.760;19.604;2023-04-09T12:01:23;101049.38;;;13.78;63.70
28628;BME280;15815;46.760;19.604;2023-04-09T12:03:52;101052.19;;;13.78;63.67
28628;BME280;15815;46.760;19.604;2023-04-09T12:06:19;101057.66;;;14.17;64.44
28628;BME280;15815;46.760;19.604;2023-04-09T12:08:46;101041.50;;;14.25;63.78
28628;BME280;15815;46.760;19.604;2023-04-09T12:11:15;101051.84;;;14.49;60.32
28628;BME280;15815;46.760;19.604;2023-04-09T12:13:40;101055.78;;;14.69;63.48
28628;BME280;15815;46.760;19.604;2023-04-09T12:16:06;101054.91;;;14.79;60.32
28628;BME280;15815;46.760;19.604;2023-04-09T12:18:36;101054.81;;;14.90;62.89
28628;BME280;15815;46.760;19.604;2023-04-09T12:21:05;101059.31;;;15.29;60.31
28628;BME280;15815;46.760;19.604;2023-04-09T12:23:36;101039.88;;;15.31;62.92
28628;BME280;15815;46.760;19.604;2023-04-09T12:48:45;101044.75;;;15.30;55.48
28628;BME280;15815;46.760;19.604;2023-04-09T12:51:16;101044.47;;;15.18;51.89
28628;BME280;15815;46.760;19.604;2023-04-09T12:54:05;101039.91;;;15.27;53.31
28628;BME280;15815;46.760;19.604;2023-04-09T12:56:42;101010.53;;;15.14;55.46
28628;BME280;15815;46.760;19.604;2023-04-09T12:59:30;101030.78;;;15.50;58.45
28628;BME280;15815;46.760;19.604;2023-04-09T13:01:56;101010.88;;;15.57;57.63
28628;BME280;15815;46.760;19.604;2023-04-09T13:09:33;100997.50;;;15.58;57.67
28628;BME280;15815;46.760;19.604;2023-04-09T13:12:14;101015.94;;;15.76;55.06
28628;BME280;15815;46.760;19.604;2023-04-09T13:14:44;101029.69;;;15.78;54.10
28628;BME280;15815;46.760;19.604;2023-04-09T13:17:30;100998.47;;;15.44;50.01
28628;BME280;15815;46.760;19.604;2023-04-09T13:26:20;101006.84;;;15.92;55.66
28628;BME280;15815;46.760;19.604;2023-04-09T13:28:49;100978.19;;;15.49;51.56
28628;BME280;15815;46.760;19.604;2023-04-09T13:38:53;101001.28;;;15.82;54.48
28628;BME280;15815;46.760;19.604;2023-04-09T13:41:42;101004.91;;;16.16;53.13
28628;BME280;15815;46.760;19.604;2023-04-09T13:44:08;100996.16;;;16.03;55.95
28628;BME280;15815;46.760;19.604;2023-04-09T13:49:58;100998.94;;;16.07;52.97
28628;BME280;15815;46.760;19.604;2023-04-09T13:52:23;101013.59;;;16.02;52.42
28628;BME280;15815;46.760;19.604;2023-04-09T13:54:49;100976.25;;;15.76;52.51
28628;BME280;15815;46.760;19.604;2023-04-09T13:57:25;100989.16;;;15.81;51.38
28628;BME280;15815;46.760;19.604;2023-04-09T13:59:53;100977.38;;;15.49;51.35
28628;BME280;15815;46.760;19.604;2023-04-09T14:02:22;100980.44;;;15.27;53.29